Time;durP1;ratioP1;P1;durP2;ratioP2;P2;SDS_P1;SDS_P2;PMS_P1;PMS_P2;Temp;Humidity;BMP_temperature;BMP_pressure;BME280_temperature;BME280_humidity;BME280_pressure;Samples;Min_cycle;Max_cycle;Signal;HPM_P1;HPM_P2
2022/05/29 00:12:14;;;;;;;7.33;4.53;;;;;;;17.29;100.00;151997.78;1771680;81;21110;-62
2022/05/29 00:22:04;;;;;;;7.65;4.28;;;;;;;17.29;100.00;151997.78;1734034;82;21009;-63
2022/05/29 00:29:30;;;;;;;9.70;4.85;;;;;;;17.17;100.00;151969.13;1771422;81;21087;-63
2022/05/29 00:36:52;;;;;;;12.03;4.42;;;;;;;17.13;100.00;151957.38;1735792;82;21081;-63
2022/05/29 00:39:19;;;;;;;8.28;4.45;;;;;;;17.15;100.00;151963.92;1735607;82;21069;-63
2022/05/29 00:52:22;;;;;;;6.53;4.80;;;;;;;17.29;100.00;151997.78;1735832;82;22135;-63
2022/05/29 01:02:45;;;;;;;8.58;5.33;;;;;;;17.28;100.00;151995.17;1735498;81;21223;-68
2022/05/29 01:41:28;;;;;;;15.23;9.83;;;;;;;17.41;100.00;152029.09;1704967;84;21452;-66
2022/05/29 16:31:40;;;;;;;11.85;6.42;;;;;;;16.83;100.00;151883.03;1714352;83;21104;-66
2022/05/29 16:34:29;;;;;;;12.33;6.42;;;;;;;16.82;100.00;151880.42;1688054;84;21072;-69
2022/05/29 16:49:00;;;;;;;11.08;6.30;;;;;;;16.63;100.00;151830.89;1688632;85;21073;-67
2022/05/29 16:51:31;;;;;;;11.88;5.90;;;;;;;16.65;100.00;151836.09;1688537;84;21274;-66
2022/05/29 16:54:00;;;;;;;8.88;6.20;;;;;;;16.64;100.00;151833.50;1685196;85;21497;-67
2022/05/29 16:56:51;;;;;;;12.75;6.87;;;;;;;16.60;100.00;151824.41;1688359;84;21060;-67
2022/05/29 16:59:30;;;;;;;12.50;6.30;;;;;;;16.59;100.00;151821.80;1686582;83;21030;-66
2022/05/29 17:02:24;;;;;;;10.15;6.33;;;;;;;16.63;100.00;151830.89;1688586;85;21084;-65
2022/05/29 17:05:06;;;;;;;9.10;6.35;;;;;;;16.59;100.00;151821.80;1685077;85;21434;-65
2022/05/29 17:07:41;;;;;;;9.78;6.37;;;;;;;16.58;100.00;151819.19;1688088;85;21021;-67
2022/05/29 17:10:20;;;;;;;10.23;6.75;;;;;;;16.54;100.00;151810.06;1714870;83;20929;-65
2022/05/29 17:12:45;;;;;;;9.40;6.35;;;;;;;16.50;100.00;151798.31;1716929;83;21055;-66
2022/05/29 17:15:17;;;;;;;8.65;6.70;;;;;;;16.48;100.00;151794.44;1717038;83;20953;-65
2022/05/29 17:17:46;;;;;;;11.45;7.15;;;;;;;16.48;100.00;151794.44;1673165;84;21273;-66
2022/05/29 17:20:15;;;;;;;9.40;6.67;;;;;;;16.53;100.00;151807.45;1644721;86;21182;-65
2022/05/29 17:23:02;;;;;;;8.95;6.33;;;;;;;16.54;100.00;151810.06;1717263;83;21056;-68
2022/05/29 17:25:50;;;;;;;8.38;6.40;;;;;;;16.59;100.00;151823.08;1673339;84;21083;-66
2022/05/29 17:28:25;;;;;;;9.38;6.25;;;;;;;16.60;100.00;151825.69;1644314;87;21095;-66
2022/05/29 17:31:10;;;;;;;8.88;6.28;;;;;;;16.55;100.00;151811.33;1674462;85;21422;-67
2022/05/29 17:33:45;;;;;;;9.40;7.05;;;;;;;16.52;100.00;151804.84;1650990;85;22092;-66
2022/05/29 17:36:41;;;;;;;8.18;6.28;;;;;;;16.46;100.00;151790.50;1647826;87;21067;-66
2022/05/29 17:39:28;;;;;;;7.83;6.58;;;;;;;16.45;100.00;151787.91;1645769;87;21143;-67
2022/05/29 17:41:55;;;;;;;10.58;6.37;;;;;;;16.41;100.00;151776.16;1650749;85;21485;-67
2022/05/29 17:44:24;;;;;;;10.72;7.00;;;;;;;16.37;100.00;151765.75;1690256;84;21170;-67
2022/05/29 17:47:20;;;;;;;9.28;6.20;;;;;;;16.33;100.00;151757.94;1690513;84;21091;-67
2022/05/29 17:49:59;;;;;;;11.93;6.62;;;;;;;16.31;100.00;151752.72;1685729;85;21025;-66
2022/05/29 17:53:10;;;;;;;8.18;6.45;;;;;;;16.30;100.00;151750.12;1685643;85;21107;-67
2022/05/29 17:55:38;;;;;;;10.20;6.95;;;;;;;16.27;100.00;151742.31;1682502;85;21069;-67
2022/05/29 17:58:06;;;;;;;8.58;6.40;;;;;;;16.26;100.00;151739.70;1685479;84;21282;-67
2022/05/29 18:00:36;;;;;;;7.95;6.45;;;;;;;16.25;100.00;151737.11;1685907;85;21028;-66
2022/05/29 18:03:08;;;;;;;9.75;6.85;;;;;;;16.24;100.00;151734.45;1685871;85;21041;-67
2022/05/29 18:05:36;;;;;;;8.35;6.12;;;;;;;16.25;100.00;151737.11;1685704;84;21071;-66
2022/05/29 18:08:05;;;;;;;11.15;6.42;;;;;;;16.26;100.00;151739.70;1687311;83;21191;-68
2022/05/29 18:10:38;;;;;;;9.55;6.08;;;;;;;16.27;100.00;151742.31;1714349;83;21490;-66
2022/05/29 18:13:07;;;;;;;7.15;6.42;;;;;;;16.24;100.00;151734.45;1714523;83;21058;-66
2022/05/29 18:15:34;;;;;;;7.58;6.53;;;;;;;16.21;100.00;151725.37;1714601;83;21078;-66
2022/05/29 18:18:01;;;;;;;10.43;6.67;;;;;;;16.18;100.00;151718.84;1714854;83;21084;-65
2022/05/29 18:20:28;;;;;;;8.90;6.70;;;;;;;16.16;100.00;151713.62;1714457;83;21530;-66
2022/05/29 18:22:55;;;;;;;9.43;6.42;;;;;;;16.16;100.00;151714.95;1714612;83;21084;-65
2022/05/29 18:25:22;;;;;;;9.65;7.25;;;;;;;16.13;100.00;151705.81;1714484;83;21009;-65
2022/05/29 18:27:50;;;;;;;10.65;7.40;;;;;;;16.13;100.00;151705.81;1714741;83;21012;-66
2022/05/29 18:30:18;;;;;;;11.40;6.80;;;;;;;16.15;100.00;151711.03;1714269;83;21037;-65
2022/05/29 18:32:46;;;;;;;10.10;7.30;;;;;;;16.18;100.00;151720.16;1699766;83;21640;-65
2022/05/29 18:35:18;;;;;;;14.50;7.40;;;;;;;16.25;100.00;151735.78;1685767;84;21130;-66
2022/05/29 18:37:43;;;;;;;8.68;6.92;;;;;;;16.25;100.00;151735.78;1685921;84;21032;-66
2022/05/29 18:40:13;;;;;;;8.60;6.95;;;;;;;16.23;100.00;151731.84;1685638;85;21127;-67
2022/05/29 18:42:40;;;;;;;11.20;7.33;;;;;;;16.23;100.00;151730.58;1688088;83;21450;-67
2022/05/29 18:45:09;;;;;;;9.05;6.87;;;;;;;16.24;100.00;151734.45;1688418;85;21577;-67
2022/05/29 18:47:38;;;;;;;9.65;7.25;;;;;;;16.27;100.00;151742.31;1688485;85;21840;-67
2022/05/29 18:50:07;;;;;;;10.32;6.70;;;;;;;16.29;100.00;151747.52;1688140;85;21030;-67
2022/05/29 18:52:36;;;;;;;10.85;7.05;;;;;;;16.29;100.00;151746.19;1688112;85;21473;-68
2022/05/29 18:55:05;;;;;;;11.53;7.97;;;;;;;16.27;100.00;151742.31;1688341;85;21060;-67
2022/05/29 18:57:32;;;;;;;10.38;7.53;;;;;;;16.23;100.00;151731.84;1688735;85;21036;-66
2022/05/29 19:00:01;;;;;;;10.48;7.90;;;;;;;16.21;100.00;151725.37;1688380;84;21188;-67
2022/05/29 19:02:28;;;;;;;9.63;7.40;;;;;;;16.17;100.00;151716.22;1688435;85;21016;-66
2022/05/29 19:04:55;;;;;;;10.18;7.30;;;;;;;16.14;100.00;151709.75;1688607;84;21045;-66
2022/05/29 19:07:23;;;;;;;11.80;7.30;;;;;;;16.14;100.00;151708.42;1688571;85;21020;-67
2022/05/29 19:09:56;;;;;;;8.70;6.90;;;;;;;16.11;100.00;151700.61;1686334;83;21084;-64
2022/05/29 19:12:25;;;;;;;9.33;7.67;;;;;;;16.09;100.00;151695.41;1717322;83;21198;-61
2022/05/29 19:14:52;;;;;;;10.25;7.75;;;;;;;16.07;100.00;151690.19;1673584;85;21074;-62
2022/05/29 19:20:07;;;;;;;10.43;7.12;;;;;;;16.04;100.00;151685.00;1717596;83;21022;-61
2022/05/29 19:22:34;;;;;;;9.93;8.03;;;;;;;16.03;100.00;151681.06;1673595;84;21569;-62
2022/05/29 19:25:03;;;;;;;10.98;7.85;;;;;;;16.08;100.00;151692.81;1644570;87;21514;-62
2022/05/29 19:27:31;;;;;;;10.35;7.17;;;;;;;16.09;100.00;151696.69;1717273;83;21386;-62
2022/05/29 19:30:01;;;;;;;12.70;7.08;;;;;;;16.08;100.00;151694.08;1717544;83;21024;-62
2022/05/29 19:32:28;;;;;;;9.60;7.20;;;;;;;16.10;100.00;151698.02;1705946;83;21056;-62
2022/05/29 19:34:56;;;;;;;10.50;7.12;;;;;;;16.10;100.00;151698.02;1688660;84;21008;-62
2022/05/29 19:37:24;;;;;;;11.03;7.15;;;;;;;16.13;100.00;151705.81;1688436;85;21241;-62
2022/05/29 19:39:51;;;;;;;9.45;7.00;;;;;;;16.13;100.00;151705.81;1688548;84;21024;-64
2022/05/29 19:42:18;;;;;;;10.30;7.25;;;;;;;16.10;100.00;151698.02;1688351;83;21076;-62
2022/05/29 19:44:45;;;;;;;9.73;7.37;;;;;;;16.11;100.00;151700.61;1688525;84;21099;-62
2022/05/29 19:47:13;;;;;;;9.53;7.28;;;;;;;16.09;100.00;151695.41;1688543;84;21439;-62
2022/05/29 19:49:40;;;;;;;8.68;7.25;;;;;;;16.10;100.00;151698.02;1688673;85;21273;-63
2022/05/29 19:52:07;;;;;;;10.05;7.65;;;;;;;16.11;100.00;151700.61;1688352;85;21081;-61
2022/05/29 19:54:34;;;;;;;9.93;8.08;;;;;;;16.09;100.00;151695.41;1688535;85;21661;-62
2022/05/29 19:57:05;;;;;;;12.88;8.98;;;;;;;16.08;100.00;151694.08;1688540;85;21104;-62
2022/05/29 19:59:31;;;;;;;10.93;9.18;;;;;;;16.08;100.00;151694.08;1688482;85;21047;-62
2022/05/29 20:01:58;;;;;;;11.97;9.40;;;;;;;16.07;100.00;151690.19;1688558;84;21180;-62
2022/05/29 20:04:26;;;;;;;12.28;9.70;;;;;;;16.08;100.00;151692.81;1688524;85;20996;-62
2022/05/29 20:06:53;;;;;;;14.38;10.10;;;;;;;16.03;100.00;151681.06;1688496;84;21099;-62
2022/05/29 20:09:20;;;;;;;11.70;9.88;;;;;;;16.04;100.00;151685.00;1705009;83;21368;-62
2022/05/29 20:11:47;;;;;;;13.22;9.85;;;;;;;16.02;100.00;151679.73;1673286;84;21471;-61
2022/05/29 20:14:14;;;;;;;12.53;10.25;;;;;;;16.00;100.00;151674.53;1644305;86;21457;-62
2022/05/29 20:16:48;;;;;;;12.00;9.93;;;;;;;15.99;100.00;151671.92;1717193;83;21442;-62
2022/05/29 20:19:15;;;;;;;15.40;10.40;;;;;;;15.96;100.00;151664.13;1717106;83;20973;-63
2022/05/29 20:21:43;;;;;;;13.28;10.35;;;;;;;15.96;100.00;151662.84;1673318;85;21032;-63
2022/05/29 20:24:13;;;;;;;14.28;10.32;;;;;;;15.94;100.00;151658.91;1672962;85;21042;-65
2022/05/29 20:26:41;;;;;;;15.15;10.20;;;;;;;15.91;100.00;151651.11;1717386;83;21256;-66
2022/05/29 20:29:08;;;;;;;15.60;10.13;;;;;;;15.87;100.00;151641.92;1717339;83;21017;-65
2022/05/29 20:31:36;;;;;;;16.12;11.08;;;;;;;15.84;100.00;151632.84;1672502;84;21537;-64
2022/05/29 20:34:03;;;;;;;12.37;9.85;;;;;;;15.85;100.00;151636.72;1645442;87;21107;-67
2022/05/29 20:36:30;;;;;;;15.18;9.98;;;;;;;15.85;100.00;151635.44;1645815;86;21133;-65
2022/05/29 20:38:57;;;;;;;14.98;10.50;;;;;;;15.84;100.00;151632.84;1688361;85;22210;-65
2022/05/29 20:41:26;;;;;;;12.78;9.40;;;;;;;15.85;100.00;151635.44;1688139;83;21072;-65
2022/05/29 20:43:54;;;;;;;13.08;9.70;;;;;;;15.84;100.00;151632.84;1687870;84;21080;-65
2022/05/29 20:49:16;;;;;;;16.00;10.53;;;;;;;15.86;100.00;151639.31;1688231;85;21072;-65
2022/05/29 20:51:44;;;;;;;14.05;9.88;;;;;;;15.85;100.00;151635.44;1688460;85;21807;-65
2022/05/29 20:54:17;;;;;;;14.65;10.32;;;;;;;15.87;100.00;151640.64;1687939;85;21044;-65
2022/05/29 20:56:45;;;;;;;13.58;10.15;;;;;;;15.86;100.00;150336.89;1688680;85;21035;-62
2022/05/29 20:59:12;;;;;;;19.37;11.48;;;;;;;15.86;100.00;140073.22;1688363;84;21080;-63
2022/05/29 21:01:40;;;;;;;15.85;11.08;;;;;;;15.89;100.00;133263.19;1688535;85;20968;-65
2022/05/29 21:04:07;;;;;;;16.45;10.58;;;;;;;15.87;100.00;134306.48;1688266;84;22236;-62
2022/05/29 21:06:37;;;;;;;17.20;11.22;;;;;;;15.86;100.00;130114.38;1688430;85;21080;-65
2022/05/29 21:09:05;;;;;;;14.95;10.80;;;;;;;15.83;100.00;129933.22;1701944;83;20981;-66
2022/05/29 21:11:33;;;;;;;15.38;11.10;;;;;;;15.83;100.00;122439.66;1717294;83;20988;-62
2022/05/29 21:14:06;;;;;;;15.93;11.85;;;;;;;15.79;100.00;118951.45;1672248;85;21087;-63
2022/05/29 21:16:34;;;;;;;17.42;10.90;;;;;;;15.72;100.00;116852.20;1673288;85;21509;-66
2022/05/29 21:19:02;;;;;;;18.07;12.15;;;;;;;15.67;100.00;109204.84;1717393;83;20945;-62
2022/05/29 21:21:33;;;;;;;19.70;12.50;;;;;;;15.61;100.00;104862.95;1717421;83;21079;-66
2022/05/29 21:24:05;;;;;;;19.07;12.53;;;;;;;15.58;100.00;93621.19;1673072;84;21059;-63
2022/05/29 21:26:32;;;;;;;18.85;13.00;;;;;;;15.59;100.00;82766.73;1717242;83;21008;-67
2022/05/29 21:29:01;;;;;;;18.73;12.23;;;;;;;15.56;100.00;77089.76;1717162;83;22190;-62
2022/05/29 21:31:29;;;;;;;17.82;12.47;;;;;;;15.54;100.00;69367.63;1673271;85;21103;-63
2022/05/29 21:33:56;;;;;;;17.73;12.75;;;;;;;15.55;100.00;62862.49;1646123;85;21588;-62
2022/05/29 21:36:29;;;;;;;18.02;12.45;;;;;;;15.56;100.00;56029.09;1687977;85;21083;-66
2022/05/29 21:38:59;;;;;;;20.25;13.22;;;;;;;15.58;100.00;51084.25;1688887;84;21644;-67
2022/05/29 21:41:26;;;;;;;18.65;12.95;;;;;;;15.57;100.00;47846.29;1687720;85;21489;-62
2022/05/29 21:43:54;;;;;;;22.22;13.43;;;;;;;15.59;100.00;44444.23;1688328;83;21040;-62
2022/05/29 21:46:22;;;;;;;20.50;12.82;;;;;;;15.58;100.00;41892.56;1688111;85;21052;-61
2022/05/29 21:48:49;;;;;;;16.12;12.30;;;;;;;15.60;100.00;38495.83;1688461;85;21040;-62
2022/05/29 21:51:22;;;;;;;22.27;13.10;;;;;;;15.62;100.00;36289.82;1688500;85;21028;-62
2022/05/29 21:53:51;;;;;;;18.02;12.18;;;;;;;15.64;100.00;35442.31;1688376;85;22263;-66
2022/05/29 21:56:22;;;;;;;17.98;13.32;;;;;;;15.66;100.00;32221.44;1688331;85;21036;-68
2022/05/29 21:58:50;;;;;;;15.50;12.13;;;;;;;15.69;100.00;30867.26;1688704;85;21068;-61
2022/05/29 22:01:18;;;;;;;20.05;14.13;;;;;;;15.72;100.00;29513.50;1688318;85;21044;-62
2022/05/29 22:03:46;;;;;;;18.73;13.58;;;;;;;15.76;100.00;27821.75;1688516;85;21069;-61
2022/05/29 22:06:18;;;;;;;19.00;13.32;;;;;;;15.78;100.00;28330.57;1688352;85;21233;-61
2022/05/29 22:08:45;;;;;;;24.70;13.58;;;;;;;15.80;100.00;27823.60;1698216;83;21621;-67
2022/05/29 22:11:14;;;;;;;22.85;13.88;;;;;;;15.82;100.00;26808.77;1692727;83;20986;-66
2022/05/29 22:13:41;;;;;;;19.62;13.70;;;;;;;15.80;100.00;28162.56;1717376;83;20961;-61
2022/05/29 22:16:11;;;;;;;21.80;12.78;;;;;;;15.83;100.00;26639.99;1673307;84;21107;-63
2022/05/29 22:18:38;;;;;;;18.00;12.20;;;;;;;15.84;100.00;25794.41;1717565;83;21209;-62
2022/05/29 22:21:17;;;;;;;14.38;11.48;;;;;;;15.86;100.00;25118.46;1717286;83;21040;-63
2022/05/29 22:23:44;;;;;;;19.07;10.72;;;;;;;15.90;100.00;23428.33;1673251;85;21098;-60
2022/05/29 22:26:11;;;;;;;15.72;9.93;;;;;;;15.91;100.00;25289.89;1673315;85;21031;-62
2022/05/29 22:28:39;;;;;;;15.83;10.03;;;;;;;15.95;100.00;23937.89;1717513;83;21040;-62
2022/05/29 22:31:18;;;;;;;15.43;9.40;;;;;;;16.02;100.00;22587.83;1673396;84;21488;-61
2022/05/29 22:33:46;;;;;;;15.75;9.33;;;;;;;16.10;100.00;22591.38;1620379;87;21529;-63
2022/05/29 22:36:17;;;;;;;17.95;8.93;;;;;;;16.19;100.00;22764.33;1646283;87;21426;-62
2022/05/29 22:38:45;;;;;;;15.32;8.58;;;;;;;16.25;100.00;25136.44;1688524;85;21021;-62
2022/05/29 22:41:13;;;;;;;15.05;8.55;;;;;;;16.30;100.00;27002.32;1688541;84;21068;-63
2022/05/29 22:43:41;;;;;;;15.58;8.48;;;;;;;16.39;100.00;29040.51;1688230;83;21502;-61
2022/05/29 22:46:10;;;;;;;16.20;8.78;;;;;;;16.41;100.00;33453.13;1688637;84;21070;-64
2022/05/29 22:49:20;;;;;;;12.23;8.18;;;;;;;16.45;100.00;36853.29;1688258;85;21021;-62
2022/05/29 22:52:02;;;;;;;17.27;8.13;;;;;;;16.46;100.00;43319.53;1688655;85;21057;-66
2022/05/29 22:54:34;;;;;;;17.15;8.63;;;;;;;16.49;100.00;45536.23;1688410;85;21147;-67
2022/05/29 22:57:03;;;;;;;14.13;8.35;;;;;;;16.52;100.00;49119.60;1688647;84;21258;-66
2022/05/29 22:59:31;;;;;;;13.93;8.33;;;;;;;16.53;100.00;53559.32;1688786;84;21481;-65
2022/05/29 23:02:07;;;;;;;14.28;7.47;;;;;;;16.57;100.00;52367.41;1688602;83;21067;-63
2022/05/29 23:04:40;;;;;;;16.70;8.43;;;;;;;16.57;100.00;55955.85;1756429;80;20961;-66
2022/05/29 23:07:09;;;;;;;16.90;9.23;;;;;;;16.60;100.00;56300.32;1728827;83;21047;-63
2022/05/29 23:09:36;;;;;;;10.60;7.58;;;;;;;16.65;100.00;52374.43;1782352;80;21070;-60
2022/05/29 23:12:06;;;;;;;14.40;8.93;;;;;;;16.68;100.00;52889.24;1791643;80;20998;-61
2022/05/29 23:14:33;;;;;;;12.65;8.05;;;;;;;16.74;100.00;48967.88;1759055;81;21452;-67
2022/05/29 23:17:01;;;;;;;13.93;7.58;;;;;;;16.80;100.00;49655.50;1767806;80;21045;-62
2022/05/29 23:19:30;;;;;;;11.40;7.65;;;;;;;16.84;100.00;52733.00;1791531;80;21536;-63
2022/05/29 23:22:08;;;;;;;21.50;8.40;;;;;;;16.87;100.00;54103.66;1791840;80;21451;-61
2022/05/29 23:24:45;;;;;;;11.43;8.25;;;;;;;16.87;100.00;59672.31;1759209;81;20971;-66
2022/05/29 23:27:12;;;;;;;12.18;7.75;;;;;;;16.87;100.00;61111.55;1791796;80;21056;-62
2022/05/29 23:32:28;;;;;;;;;;;;;;;16.86;100.00;63346.41;1771960;80;21485;-65
2022/05/29 23:34:59;;;;;;;9.03;6.30;;;;;;;16.82;100.00;67629.83;1730412;82;21774;-62
2022/05/29 23:37:26;;;;;;;9.08;6.42;;;;;;;16.73;100.00;80341.67;1699284;84;21018;-66
2022/05/29 23:39:53;;;;;;;12.33;7.47;;;;;;;16.68;100.00;84987.08;1730305;82;21052;-62
2022/05/29 23:42:24;;;;;;;11.25;6.65;;;;;;;16.66;100.00;84639.25;1730009;81;21020;-61
2022/05/29 23:44:55;;;;;;;10.58;6.20;;;;;;;16.60;100.00;90153.64;1729925;81;21426;-62
2022/05/29 23:47:24;;;;;;;10.68;6.87;;;;;;;16.60;100.00;85666.55;1699520;84;21849;-61
2022/05/29 23:49:53;;;;;;;11.93;7.22;;;;;;;16.57;100.00;90838.96;1729626;82;21080;-61
2022/05/29 23:52:20;;;;;;;13.28;7.67;;;;;;;16.55;100.00;88937.30;1730190;82;21007;-62
2022/05/29 23:54:49;;;;;;;14.20;7.40;;;;;;;16.53;100.00;91869.86;1699207;83;21087;-61
2022/05/29 23:57:16;;;;;;;13.50;7.62;;;;;;;16.47;100.00;94798.16;1730227;82;21088;-61
2022/05/29 23:59:44;;;;;;;10.55;7.03;;;;;;;16.45;100.00;91684.36;1729848;82;21232;-62
